createdAt,value
2018-06-14T00:01:48.410Z,74.10
2018-06-14T00:04:22.626Z,73.10
2018-06-14T00:06:56.914Z,73.50
2018-06-14T00:09:31.338Z,74.00
2018-06-14T00:12:05.498Z,74.20
2018-06-14T00:14:39.720Z,74.30
2018-06-14T00:17:14.024Z,74.10
2018-06-14T00:19:48.378Z,73.70
2018-06-14T00:22:22.694Z,73.90
2018-06-14T00:24:56.903Z,73.70
2018-06-14T00:27:31.126Z,73.90
2018-06-14T00:30:05.506Z,73.60
2018-06-14T00:32:39.820Z,73.90
2018-06-14T00:35:14.059Z,74.00
2018-06-14T00:37:48.353Z,74.30
2018-06-14T00:40:22.756Z,74.30
2018-06-14T00:42:57.122Z,74.40
2018-06-14T00:45:31.406Z,74.20
2018-06-14T00:48:05.674Z,74.50
2018-06-14T00:50:39.851Z,74.50
2018-06-14T00:53:14.287Z,75.50
2018-06-14T00:55:48.434Z,74.60
2018-06-14T00:58:22.690Z,74.80
2018-06-14T01:00:56.898Z,75.00
2018-06-14T01:03:31.275Z,75.30
2018-06-14T01:06:05.610Z,75.30
2018-06-14T01:08:39.968Z,75.30
2018-06-14T01:11:14.117Z,75.60
2018-06-14T01:13:48.388Z,75.80
2018-06-14T01:16:22.731Z,75.70
2018-06-14T01:18:57.170Z,75.90
2018-06-14T01:21:32.065Z,76.30
2018-06-14T01:24:06.719Z,76.30
2018-06-14T01:26:41.015Z,75.70
2018-06-14T01:29:15.626Z,77.00
2018-06-14T01:31:49.994Z,78.70
2018-06-14T01:34:24.281Z,78.50
2018-06-14T01:36:58.609Z,79.30
2018-06-14T01:39:32.915Z,79.30
2018-06-14T01:42:07.193Z,79.20
2018-06-14T01:44:41.467Z,79.50
2018-06-14T01:47:15.837Z,79.00
2018-06-14T01:49:50.115Z,79.30
2018-06-14T01:52:24.385Z,78.70
2018-06-14T01:54:58.701Z,79.40
2018-06-14T01:57:33.024Z,79.00
2018-06-14T02:00:07.406Z,79.00
2018-06-14T02:02:41.578Z,79.00
2018-06-14T02:05:15.940Z,79.00
2018-06-14T02:07:50.134Z,78.90
2018-06-14T02:10:24.806Z,79.10
2018-06-14T02:12:58.983Z,79.00
2018-06-14T02:15:33.195Z,78.80
2018-06-14T02:18:07.490Z,78.20
2018-06-14T02:20:41.822Z,77.70
2018-06-14T02:23:16.142Z,78.30
2018-06-14T02:25:50.365Z,78.50
2018-06-14T02:28:24.554Z,78.30
2018-06-14T02:33:33.254Z,78.10
2018-06-14T02:36:07.533Z,78.10
2018-06-14T02:38:41.763Z,77.60
2018-06-14T02:41:16.065Z,77.80
2018-06-14T02:43:50.446Z,77.60
2018-06-14T02:46:24.598Z,77.80
2018-06-14T02:48:58.885Z,77.80
2018-06-14T02:51:33.194Z,78.20
2018-06-14T02:54:07.467Z,78.40
2018-06-14T02:56:41.693Z,78.10
2018-06-14T02:59:15.918Z,77.70
2018-06-14T03:01:50.197Z,77.30
2018-06-14T03:04:24.354Z,77.50
2018-06-14T03:06:58.611Z,77.40
2018-06-14T03:09:33.008Z,77.60
2018-06-14T03:12:07.327Z,77.30
2018-06-14T03:14:41.796Z,77.30
2018-06-14T03:17:16.179Z,77.30
2018-06-14T03:19:51.752Z,77.30
2018-06-14T03:22:26.649Z,77.50
2018-06-14T03:25:00.977Z,77.80
2018-06-14T03:27:35.317Z,77.80
2018-06-14T03:30:09.580Z,78.50
2018-06-14T03:32:43.887Z,78.90
2018-06-14T03:35:18.423Z,78.80
2018-06-14T03:37:52.988Z,78.90
2018-06-14T03:40:27.670Z,78.90
2018-06-14T03:43:01.871Z,78.70
2018-06-14T03:45:36.163Z,78.60
2018-06-14T03:48:10.869Z,79.10
2018-06-14T03:50:45.023Z,78.80
2018-06-14T03:53:19.153Z,78.40
2018-06-14T03:55:53.310Z,78.70
2018-06-14T03:58:27.795Z,78.50
2018-06-14T04:01:02.019Z,78.20
2018-06-14T04:03:36.301Z,78.20
2018-06-14T04:06:10.618Z,77.40
2018-06-14T04:08:44.907Z,77.20
2018-06-14T04:11:19.301Z,77.50
2018-06-14T04:13:53.615Z,77.00
2018-06-14T04:16:27.995Z,77.00
2018-06-14T04:19:02.328Z,77.50
2018-06-14T04:21:36.956Z,77.30
2018-06-14T04:24:11.171Z,76.80
2018-06-14T04:26:45.495Z,77.00
2018-06-14T04:31:53.643Z,77.00
2018-06-14T04:34:27.827Z,76.80
2018-06-14T04:37:02.150Z,76.50
2018-06-14T04:39:36.570Z,76.20
2018-06-14T04:42:10.851Z,76.40
2018-06-14T04:47:19.181Z,76.20
2018-06-14T04:49:53.502Z,76.30
2018-06-14T04:52:27.774Z,76.30
2018-06-14T04:55:02.110Z,76.40
2018-06-14T04:57:36.386Z,76.20
2018-06-14T05:02:44.737Z,75.90
2018-06-14T05:05:19.030Z,76.00
2018-06-14T05:07:53.346Z,76.20
2018-06-14T05:10:27.811Z,76.60
2018-06-14T05:13:02.003Z,76.70
2018-06-14T05:15:36.266Z,76.50
2018-06-14T05:18:10.584Z,76.00
2018-06-14T05:20:44.835Z,76.60
2018-06-14T05:23:19.107Z,76.50
2018-06-14T05:25:53.419Z,76.30
2018-06-14T05:28:27.653Z,76.80
2018-06-14T05:31:01.974Z,76.50
2018-06-14T05:33:36.118Z,76.30
2018-06-14T05:36:10.407Z,76.00
2018-06-14T05:38:44.652Z,75.70
2018-06-14T05:41:18.953Z,75.70
2018-06-14T05:43:53.278Z,75.60
2018-06-14T05:46:27.521Z,75.20
2018-06-14T05:49:01.930Z,75.30
2018-06-14T05:51:36.244Z,75.10
2018-06-14T05:54:10.479Z,75.40
2018-06-14T05:56:44.748Z,75.70
2018-06-14T05:59:19.063Z,75.00
2018-06-14T06:01:53.498Z,74.00
2018-06-14T06:04:27.839Z,73.10
2018-06-14T06:07:02.039Z,72.70
2018-06-14T06:09:36.358Z,72.00
2018-06-14T06:12:10.638Z,72.40
2018-06-14T06:14:44.918Z,72.30
2018-06-14T06:17:19.253Z,72.10
2018-06-14T06:19:53.614Z,71.70
2018-06-14T06:22:27.956Z,70.70
2018-06-14T06:25:02.243Z,71.20
2018-06-14T06:27:36.543Z,70.90
2018-06-14T06:30:10.695Z,70.50
2018-06-14T06:32:44.927Z,69.10
2018-06-14T06:35:19.238Z,69.50
2018-06-14T06:37:53.409Z,69.60
2018-06-14T06:40:27.726Z,69.60
2018-06-14T06:43:02.084Z,68.20
2018-06-14T06:48:10.629Z,67.60
2018-06-14T06:50:44.983Z,67.70
2018-06-14T06:53:19.303Z,67.30
2018-06-14T06:55:53.532Z,67.90
2018-06-14T06:58:27.828Z,67.30
2018-06-14T07:01:02.140Z,67.20
2018-06-14T07:03:36.439Z,66.80
2018-06-14T07:06:10.851Z,66.20
2018-06-14T07:08:45.055Z,66.00
2018-06-14T07:11:19.531Z,65.80
2018-06-14T07:13:53.843Z,67.50
2018-06-14T07:16:28.040Z,65.00
2018-06-14T07:19:02.230Z,63.90
2018-06-14T07:21:36.670Z,65.00
2018-06-14T07:24:10.903Z,64.40
2018-06-14T07:26:45.190Z,65.00
2018-06-14T07:29:19.338Z,64.60
2018-06-14T07:31:53.510Z,62.50
2018-06-14T07:34:27.913Z,62.10
2018-06-14T07:37:02.150Z,62.50
2018-06-14T07:39:36.426Z,61.70
2018-06-14T07:42:10.691Z,62.00
2018-06-14T07:44:44.979Z,62.90
2018-06-14T07:47:19.130Z,61.60
2018-06-14T07:52:27.463Z,62.10
2018-06-14T07:55:01.694Z,61.80
2018-06-14T07:57:35.975Z,61.40
2018-06-14T08:00:10.238Z,59.50
2018-06-14T08:02:44.577Z,59.10
2018-06-14T08:07:52.935Z,58.70
2018-06-14T08:10:27.147Z,58.40
2018-06-14T08:13:01.476Z,58.40
2018-06-14T08:15:35.622Z,58.80
2018-06-14T08:18:10.071Z,58.90
2018-06-14T08:20:44.364Z,58.00
2018-06-14T08:23:18.517Z,57.10
2018-06-14T08:25:52.706Z,57.60
2018-06-14T08:28:27.070Z,57.00
2018-06-14T08:31:01.368Z,57.30
2018-06-14T08:33:35.614Z,58.00
2018-06-14T08:36:09.822Z,57.00
2018-06-14T08:38:43.982Z,57.90
2018-06-14T08:41:18.353Z,57.20
2018-06-14T08:43:52.750Z,57.40
2018-06-14T08:46:27.112Z,56.60
2018-06-14T08:49:01.820Z,56.60
2018-06-14T08:51:36.298Z,56.70
2018-06-14T08:54:10.648Z,56.30
2018-06-14T08:56:45.058Z,55.20
2018-06-14T08:59:19.797Z,55.10
2018-06-14T09:01:54.103Z,54.20
2018-06-14T09:04:28.327Z,54.90
2018-06-14T09:07:03.985Z,53.00
2018-06-14T09:09:38.176Z,53.90
2018-06-14T09:14:46.862Z,54.30
2018-06-14T09:19:55.245Z,53.30
2018-06-14T09:25:03.809Z,52.50
2018-06-14T09:27:37.981Z,52.70
2018-06-14T09:30:12.416Z,52.40
2018-06-14T09:32:46.806Z,52.70
2018-06-14T09:35:21.203Z,52.60
2018-06-14T09:40:29.654Z,49.90
2018-06-14T09:43:04.026Z,52.00
2018-06-14T09:45:38.247Z,50.70
2018-06-14T09:48:12.762Z,50.00
2018-06-14T09:50:47.074Z,50.80
2018-06-14T09:53:21.350Z,49.50
2018-06-14T09:55:55.657Z,48.80
2018-06-14T10:01:03.907Z,48.80
2018-06-14T10:03:38.274Z,50.10
2018-06-14T10:06:12.544Z,48.00
2018-06-14T10:08:47.014Z,47.70
2018-06-14T10:11:21.154Z,46.80
2018-06-14T10:13:55.533Z,48.00
2018-06-14T10:16:29.811Z,47.00
2018-06-14T10:19:04.487Z,47.20
2018-06-14T10:21:38.913Z,45.40
2018-06-14T10:24:13.297Z,46.00
2018-06-14T10:26:47.622Z,46.50
2018-06-14T10:29:21.901Z,46.50
2018-06-14T10:31:56.173Z,46.20
2018-06-14T10:34:30.518Z,45.40
2018-06-14T10:37:04.695Z,46.10
2018-06-14T10:39:38.999Z,45.00
2018-06-14T10:42:13.319Z,45.60
2018-06-14T10:44:47.602Z,45.90
2018-06-14T10:47:21.901Z,45.90
2018-06-14T10:49:56.319Z,46.20
2018-06-14T10:52:30.606Z,45.30
2018-06-14T10:55:04.765Z,45.20
2018-06-14T10:57:39.031Z,45.30
2018-06-14T11:00:13.432Z,44.60
2018-06-14T11:02:47.962Z,44.80
2018-06-14T11:05:22.246Z,43.90
2018-06-14T11:07:56.555Z,43.80
2018-06-14T11:10:30.814Z,44.40
2018-06-14T11:13:05.118Z,44.40
2018-06-14T11:15:39.301Z,43.50
2018-06-14T11:18:13.775Z,44.10
2018-06-14T11:20:48.171Z,43.70
2018-06-14T11:23:22.480Z,42.80
2018-06-14T11:25:56.733Z,42.70
2018-06-14T11:28:30.893Z,42.50
2018-06-14T11:31:05.182Z,42.00
2018-06-14T11:33:39.515Z,43.10
2018-06-14T11:36:13.825Z,41.20
2018-06-14T11:38:48.192Z,41.50
2018-06-14T11:41:22.530Z,41.20
2018-06-14T11:43:56.734Z,40.40
2018-06-14T11:46:31.068Z,41.30
2018-06-14T11:49:05.371Z,39.70
2018-06-14T11:51:39.703Z,39.50
2018-06-14T11:54:14.093Z,40.00
2018-06-14T11:56:48.172Z,41.50
2018-06-14T11:59:22.422Z,41.70
2018-06-14T12:01:56.699Z,39.60
2018-06-14T12:04:30.988Z,38.70
2018-06-14T12:07:05.316Z,39.00
2018-06-14T12:09:39.546Z,38.50
2018-06-14T12:12:14.343Z,39.00
2018-06-14T12:14:48.630Z,38.80
2018-06-14T12:17:22.758Z,39.90
2018-06-14T12:19:56.948Z,38.20
2018-06-14T12:22:31.267Z,40.30
2018-06-14T12:25:05.575Z,40.80
2018-06-14T12:27:39.891Z,39.50
2018-06-14T12:30:14.163Z,39.70
2018-06-14T12:32:48.444Z,39.70
2018-06-14T12:35:22.751Z,40.90
2018-06-14T12:37:57.158Z,41.00
2018-06-14T12:40:31.506Z,38.90
2018-06-14T12:43:05.829Z,38.30
2018-06-14T12:45:40.146Z,39.00
2018-06-14T12:48:14.456Z,39.10
2018-06-14T12:50:49.125Z,39.30
2018-06-14T12:53:23.385Z,37.30
2018-06-14T12:55:57.678Z,37.70
2018-06-14T12:58:32.029Z,37.80
2018-06-14T13:01:06.266Z,38.00
2018-06-14T13:03:40.581Z,37.70
2018-06-14T13:06:14.913Z,37.70
2018-06-14T13:08:49.344Z,37.20
2018-06-14T13:11:23.490Z,38.60
2018-06-14T13:13:57.799Z,37.00
2018-06-14T13:16:32.115Z,37.80
2018-06-14T13:21:40.381Z,37.70
2018-06-14T13:24:14.478Z,38.40
2018-06-14T13:26:48.871Z,38.90
2018-06-14T13:29:23.146Z,38.40
2018-06-14T13:31:57.435Z,39.60
2018-06-14T13:34:32.018Z,39.20
2018-06-14T13:37:06.300Z,38.80
2018-06-14T13:39:40.750Z,38.20
2018-06-14T13:42:15.133Z,38.60
2018-06-14T13:44:49.406Z,38.90
2018-06-14T13:47:23.702Z,39.20
2018-06-14T13:49:58.011Z,38.70
2018-06-14T13:52:32.534Z,39.40
2018-06-14T14:00:14.738Z,39.60
2018-06-14T14:02:49.005Z,40.50
2018-06-14T14:05:23.298Z,40.80
2018-06-14T14:07:57.490Z,40.20
2018-06-14T14:10:31.736Z,40.30
2018-06-14T14:13:06.026Z,40.40
2018-06-14T14:15:40.418Z,40.70
2018-06-14T14:18:14.647Z,40.90
2018-06-14T14:20:59.006Z,41.40
2018-06-14T14:26:10.701Z,41.10
2018-06-14T14:31:21.390Z,41.90
2018-06-14T14:33:55.642Z,41.70
2018-06-14T14:36:29.949Z,40.70
2018-06-14T14:39:07.216Z,41.30
2018-06-14T14:41:41.890Z,41.40
2018-06-14T14:44:16.056Z,42.70
2018-06-14T14:46:50.355Z,42.20
2018-06-14T14:49:24.749Z,42.10
2018-06-14T14:51:58.951Z,41.80
2018-06-14T14:54:33.118Z,42.20
2018-06-14T14:59:41.581Z,41.90
2018-06-14T15:02:15.910Z,42.00
2018-06-14T15:04:50.135Z,42.30
2018-06-14T15:07:24.510Z,42.00
2018-06-14T15:09:58.839Z,42.00
2018-06-14T15:12:33.195Z,41.80
2018-06-14T15:15:07.657Z,42.50
2018-06-14T15:17:41.949Z,43.30
2018-06-14T15:22:50.294Z,43.10
2018-06-14T15:25:24.623Z,42.90
2018-06-14T15:27:59.038Z,42.10
2018-06-14T15:30:33.323Z,42.10
2018-06-14T15:33:07.660Z,42.20
2018-06-14T15:35:41.960Z,42.10
2018-06-14T15:38:16.344Z,42.20
2018-06-14T15:40:50.590Z,42.50
2018-06-14T15:43:24.883Z,43.30
2018-06-14T15:45:59.123Z,42.70
2018-06-14T15:48:33.360Z,43.20
2018-06-14T15:51:07.547Z,43.10
2018-06-14T15:53:41.940Z,43.00
2018-06-14T15:56:33.773Z,43.40
2018-06-14T15:59:09.258Z,43.30
2018-06-14T16:01:43.587Z,43.50
2018-06-14T16:04:17.816Z,44.10
2018-06-14T16:06:52.254Z,44.30
2018-06-14T16:09:26.487Z,44.50
2018-06-14T16:12:00.870Z,44.70
2018-06-14T16:14:35.287Z,44.70
2018-06-14T16:17:09.651Z,45.30
2018-06-14T16:19:43.973Z,45.30
2018-06-14T16:22:18.303Z,45.70
2018-06-14T16:24:52.614Z,46.10
2018-06-14T16:27:26.921Z,47.50
2018-06-14T16:30:01.293Z,49.40
2018-06-14T16:32:35.623Z,50.00
2018-06-14T16:35:09.795Z,52.50
2018-06-14T16:37:44.080Z,53.60
2018-06-14T16:40:18.469Z,55.60
2018-06-14T16:42:52.698Z,56.20
2018-06-14T16:45:26.866Z,57.10
2018-06-14T16:48:01.282Z,58.20
2018-06-14T16:50:35.459Z,58.70
2018-06-14T16:53:09.680Z,59.30
2018-06-14T16:55:43.889Z,63.00
2018-06-14T16:58:18.179Z,66.20
2018-06-14T17:00:52.427Z,68.70
2018-06-14T17:03:26.785Z,72.10
2018-06-14T17:06:01.024Z,72.80
2018-06-14T17:08:35.199Z,74.40
2018-06-14T17:11:09.463Z,74.70
2018-06-14T17:13:43.751Z,74.70
2018-06-14T17:16:17.977Z,75.50
2018-06-14T17:18:52.306Z,75.90
2018-06-14T17:21:26.788Z,77.30
2018-06-14T17:24:00.996Z,77.70
2018-06-14T17:26:35.280Z,78.90
2018-06-14T17:29:09.618Z,79.20
2018-06-14T17:31:43.943Z,80.00
2018-06-14T17:34:18.259Z,80.10
2018-06-14T17:36:52.565Z,81.00
2018-06-14T17:39:26.878Z,80.60
2018-06-14T17:42:01.330Z,83.30
2018-06-14T17:44:35.516Z,82.90
2018-06-14T17:47:09.870Z,81.30
2018-06-14T17:49:44.283Z,81.50
2018-06-14T17:52:19.017Z,83.00
2018-06-14T17:54:53.390Z,81.10
2018-06-14T17:57:27.714Z,82.20
2018-06-14T18:00:01.972Z,83.10
2018-06-14T18:02:36.383Z,82.10
2018-06-14T18:05:10.622Z,82.10
2018-06-14T18:07:44.954Z,83.80
2018-06-14T18:10:19.312Z,83.90
2018-06-14T18:12:53.630Z,83.40
2018-06-14T18:15:27.915Z,82.70
2018-06-14T18:18:02.354Z,83.20
2018-06-14T18:20:36.769Z,84.60
2018-06-14T18:23:11.034Z,81.60
2018-06-14T18:25:45.463Z,82.10
2018-06-14T18:28:19.635Z,83.40
2018-06-14T18:30:54.110Z,82.70
2018-06-14T18:33:28.262Z,82.80
2018-06-14T18:36:02.700Z,83.60
2018-06-14T18:38:37.010Z,82.50
2018-06-14T18:41:11.416Z,83.20
2018-06-14T18:43:45.522Z,83.20
2018-06-14T18:46:19.821Z,83.80
2018-06-14T18:48:54.096Z,82.70
2018-06-14T18:51:28.486Z,83.00
2018-06-14T18:54:02.738Z,82.50
2018-06-14T18:56:36.926Z,83.30
2018-06-14T18:59:11.210Z,83.10
2018-06-14T19:01:45.601Z,82.90
2018-06-14T19:04:19.895Z,82.00
2018-06-14T19:06:54.051Z,81.90
2018-06-14T19:09:28.530Z,82.70
2018-06-14T19:12:02.818Z,83.10
2018-06-14T19:14:37.088Z,83.00
2018-06-14T19:17:11.375Z,82.70
2018-06-14T19:19:45.659Z,82.70
2018-06-14T19:24:53.918Z,83.00
2018-06-14T19:27:28.202Z,83.80
2018-06-14T19:30:02.542Z,83.10
2018-06-14T19:32:36.668Z,83.00
2018-06-14T19:35:10.930Z,83.40
2018-06-14T19:37:45.326Z,83.20
2018-06-14T19:40:19.494Z,83.40
2018-06-14T19:42:53.807Z,82.70
2018-06-14T19:45:28.027Z,83.00
2018-06-14T19:48:02.186Z,84.10
2018-06-14T19:50:36.527Z,83.60
2018-06-14T19:53:10.773Z,83.10
2018-06-14T19:55:45.105Z,83.60
2018-06-14T19:58:19.226Z,83.50
2018-06-14T20:00:53.464Z,83.50
2018-06-14T20:03:27.738Z,82.90
2018-06-14T20:06:02.076Z,84.20
2018-06-14T20:08:36.408Z,84.50
2018-06-14T20:11:10.712Z,84.40
2018-06-14T20:13:45.003Z,84.50
2018-06-14T20:16:19.295Z,84.90
2018-06-14T20:18:53.511Z,85.00
2018-06-14T20:21:27.741Z,84.60
2018-06-14T20:24:02.107Z,84.20
2018-06-14T20:26:36.460Z,85.00
2018-06-14T20:29:10.582Z,84.40
2018-06-14T20:31:44.810Z,84.40
2018-06-14T20:34:19.277Z,84.10
2018-06-14T20:36:53.734Z,83.60
2018-06-14T20:39:28.067Z,84.00
2018-06-14T20:42:02.497Z,83.60
2018-06-14T20:44:36.833Z,84.00
2018-06-14T20:47:10.990Z,84.00
2018-06-14T20:53:20.120Z,84.00
2018-06-14T20:56:11.794Z,84.30
2018-06-14T20:58:47.080Z,84.50
2018-06-14T21:02:17.080Z,84.50
2018-06-14T21:04:51.239Z,84.60
2018-06-14T21:10:14.798Z,84.70
2018-06-14T21:13:07.337Z,85.10
2018-06-14T21:16:00.355Z,85.20
2018-06-14T21:21:44.037Z,85.40
2018-06-14T21:24:18.350Z,85.40
2018-06-14T21:26:52.740Z,85.40
2018-06-14T21:29:27.018Z,85.00
2018-06-14T21:32:01.267Z,85.10
2018-06-14T21:34:35.431Z,85.70
2018-06-14T21:37:09.797Z,85.40
2018-06-14T21:39:43.940Z,85.20
2018-06-14T21:42:18.336Z,85.50
2018-06-14T21:44:52.594Z,85.20
2018-06-14T21:47:26.970Z,85.20
2018-06-14T21:52:35.351Z,85.40
2018-06-14T21:55:09.605Z,86.00
2018-06-14T21:57:43.863Z,85.60
2018-06-14T22:00:18.196Z,85.50
2018-06-14T22:02:57.939Z,85.30
2018-06-14T22:05:32.086Z,85.20
2018-06-14T22:08:06.370Z,85.80
2018-06-14T22:10:40.664Z,86.10
2018-06-14T22:13:14.976Z,85.70
2018-06-14T22:15:49.277Z,86.20
2018-06-14T22:18:23.547Z,86.00
2018-06-14T22:20:57.864Z,86.00
2018-06-14T22:23:32.171Z,86.10
2018-06-14T22:26:06.468Z,85.50
2018-06-14T22:28:40.802Z,86.30
2018-06-14T22:31:15.084Z,85.80
2018-06-14T22:34:00.919Z,86.00
2018-06-14T22:36:35.194Z,86.00
2018-06-14T22:39:09.527Z,85.50
2018-06-14T22:41:43.862Z,86.30
2018-06-14T22:44:18.250Z,86.80
2018-06-14T22:46:52.509Z,87.60
2018-06-14T22:49:26.814Z,87.60
2018-06-14T22:52:47.545Z,88.10
2018-06-14T22:55:22.803Z,88.20
2018-06-14T22:57:57.051Z,88.20
2018-06-14T23:00:47.835Z,88.50
2018-06-14T23:03:22.013Z,88.30
2018-06-14T23:05:56.154Z,89.00
2018-06-14T23:08:30.414Z,89.20
2018-06-14T23:11:16.120Z,89.40
2018-06-14T23:13:50.616Z,88.80
2018-06-14T23:16:24.795Z,89.70
2018-06-14T23:18:59.022Z,90.00
2018-06-14T23:21:33.354Z,89.10
2018-06-14T23:24:07.695Z,89.90
2018-06-14T23:26:41.867Z,90.00
2018-06-14T23:29:16.194Z,89.40
2018-06-14T23:31:50.375Z,90.10
2018-06-14T23:34:24.659Z,89.80
2018-06-14T23:36:58.967Z,89.90
2018-06-14T23:39:33.199Z,90.10
2018-06-14T23:42:07.517Z,90.20
2018-06-14T23:44:41.684Z,89.80
2018-06-14T23:47:15.999Z,90.20
2018-06-14T23:49:50.523Z,89.90
2018-06-14T23:52:24.823Z,90.10
2018-06-14T23:54:59.050Z,90.20
2018-06-14T23:57:33.382Z,90.50
